sensor_id;sensor_type;location;lat;lon;timestamp;P1;durP1;ratioP1;P2;durP2;ratioP2
16304;SDS011;8261;47.678;-122.174;2022-10-31T00:00:59;3.73;;;2.20;;
16304;SDS011;8261;47.678;-122.174;2022-10-31T00:03:33;4.60;;;2.00;;
16304;SDS011;8261;47.678;-122.174;2022-10-31T00:06:04;3.67;;;2.07;;
16304;SDS011;8261;47.678;-122.174;2022-10-31T00:08:36;3.40;;;1.90;;
16304;SDS011;8261;47.678;-122.174;2022-10-31T00:11:08;2.53;;;1.83;;
16304;SDS011;8261;47.678;-122.174;2022-10-31T00:13:40;2.27;;;1.93;;
16304;SDS011;8261;47.678;-122.174;2022-10-31T00:16:16;3.37;;;2.10;;
16304;SDS011;8261;47.678;-122.174;2022-10-31T00:18:50;4.07;;;1.83;;
16304;SDS011;8261;47.678;-122.174;2022-10-31T00:21:22;2.90;;;1.63;;
16304;SDS011;8261;47.678;-122.174;2022-10-31T00:23:54;3.73;;;1.90;;
16304;SDS011;8261;47.678;-122.174;2022-10-31T00:26:27;2.57;;;1.70;;
16304;SDS011;8261;47.678;-122.174;2022-10-31T00:28:58;3.97;;;1.77;;
16304;SDS011;8261;47.678;-122.174;2022-10-31T00:31:30;3.63;;;1.60;;
16304;SDS011;8261;47.678;-122.174;2022-10-31T00:34:03;2.50;;;1.60;;
16304;SDS011;8261;47.678;-122.174;2022-10-31T00:36:34;1.20;;;1.10;;
16304;SDS011;8261;47.678;-122.174;2022-10-31T00:39:05;2.67;;;1.50;;
16304;SDS011;8261;47.678;-122.174;2022-10-31T00:41:35;3.47;;;1.80;;
16304;SDS011;8261;47.678;-122.174;2022-10-31T00:44:06;4.03;;;1.50;;
16304;SDS011;8261;47.678;-122.174;2022-10-31T00:46:37;3.17;;;1.70;;
16304;SDS011;8261;47.678;-122.174;2022-10-31T00:49:10;2.93;;;1.73;;
16304;SDS011;8261;47.678;-122.174;2022-10-31T00:51:41;3.30;;;1.70;;
16304;SDS011;8261;47.678;-122.174;2022-10-31T00:54:12;2.30;;;1.33;;
16304;SDS011;8261;47.678;-122.174;2022-10-31T00:56:43;3.70;;;1.50;;
16304;SDS011;8261;47.678;-122.174;2022-10-31T00:59:14;4.00;;;1.43;;
16304;SDS011;8261;47.678;-122.174;2022-10-31T01:01:46;1.63;;;1.20;;
16304;SDS011;8261;47.678;-122.174;2022-10-31T01:04:20;2.80;;;1.23;;
16304;SDS011;8261;47.678;-122.174;2022-10-31T01:06:52;1.37;;;1.27;;
16304;SDS011;8261;47.678;-122.174;2022-10-31T01:09:23;1.40;;;1.10;;
16304;SDS011;8261;47.678;-122.174;2022-10-31T01:11:54;1.93;;;1.20;;
16304;SDS011;8261;47.678;-122.174;2022-10-31T01:14:26;2.73;;;1.30;;
16304;SDS011;8261;47.678;-122.174;2022-10-31T01:16:57;3.07;;;1.37;;
16304;SDS011;8261;47.678;-122.174;2022-10-31T01:19:30;1.97;;;1.27;;
16304;SDS011;8261;47.678;-122.174;2022-10-31T01:22:01;1.40;;;1.00;;
16304;SDS011;8261;47.678;-122.174;2022-10-31T01:24:32;2.83;;;1.20;;
16304;SDS011;8261;47.678;-122.174;2022-10-31T01:27:03;2.10;;;1.40;;
16304;SDS011;8261;47.678;-122.174;2022-10-31T01:29:34;2.40;;;1.30;;
16304;SDS011;8261;47.678;-122.174;2022-10-31T01:32:06;5.27;;;1.27;;
16304;SDS011;8261;47.678;-122.174;2022-10-31T01:34:38;2.90;;;1.40;;
16304;SDS011;8261;47.678;-122.174;2022-10-31T01:37:09;1.93;;;1.20;;
16304;SDS011;8261;47.678;-122.174;2022-10-31T01:39:40;2.47;;;1.23;;
16304;SDS011;8261;47.678;-122.174;2022-10-31T01:42:12;1.60;;;1.30;;
16304;SDS011;8261;47.678;-122.174;2022-10-31T01:44:54;1.77;;;1.20;;
16304;SDS011;8261;47.678;-122.174;2022-10-31T01:47:38;2.30;;;1.37;;
16304;SDS011;8261;47.678;-122.174;2022-10-31T01:50:28;2.17;;;1.03;;
16304;SDS011;8261;47.678;-122.174;2022-10-31T01:53:03;1.77;;;1.13;;
16304;SDS011;8261;47.678;-122.174;2022-10-31T01:55:37;1.80;;;1.20;;
16304;SDS011;8261;47.678;-122.174;2022-10-31T01:58:13;2.30;;;1.23;;
16304;SDS011;8261;47.678;-122.174;2022-10-31T02:00:47;2.57;;;1.20;;
16304;SDS011;8261;47.678;-122.174;2022-10-31T02:03:21;2.30;;;1.40;;
16304;SDS011;8261;47.678;-122.174;2022-10-31T02:05:56;2.77;;;1.20;;
16304;SDS011;8261;47.678;-122.174;2022-10-31T02:08:28;2.27;;;1.20;;
16304;SDS011;8261;47.678;-122.174;2022-10-31T02:11:00;1.13;;;0.90;;
16304;SDS011;8261;47.678;-122.174;2022-10-31T02:13:32;2.37;;;1.40;;
16304;SDS011;8261;47.678;-122.174;2022-10-31T02:16:04;2.23;;;1.37;;
16304;SDS011;8261;47.678;-122.174;2022-10-31T02:18:36;3.53;;;1.20;;
16304;SDS011;8261;47.678;-122.174;2022-10-31T02:21:14;2.47;;;1.37;;
16304;SDS011;8261;47.678;-122.174;2022-10-31T02:26:58;1.60;;;1.17;;
16304;SDS011;8261;47.678;-122.174;2022-10-31T02:32:44;2.17;;;1.47;;
16304;SDS011;8261;47.678;-122.174;2022-10-31T02:35:27;1.33;;;1.10;;
16304;SDS011;8261;47.678;-122.174;2022-10-31T02:38:16;3.00;;;1.70;;
16304;SDS011;8261;47.678;-122.174;2022-10-31T02:41:01;1.23;;;1.03;;
16304;SDS011;8261;47.678;-122.174;2022-10-31T02:43:42;1.73;;;1.20;;
16304;SDS011;8261;47.678;-122.174;2022-10-31T02:46:17;1.50;;;1.27;;
16304;SDS011;8261;47.678;-122.174;2022-10-31T02:48:57;2.00;;;1.30;;
16304;SDS011;8261;47.678;-122.174;2022-10-31T02:51:32;4.23;;;1.60;;
16304;SDS011;8261;47.678;-122.174;2022-10-31T02:54:03;2.13;;;1.30;;
16304;SDS011;8261;47.678;-122.174;2022-10-31T02:56:34;2.80;;;1.30;;
16304;SDS011;8261;47.678;-122.174;2022-10-31T02:59:05;3.73;;;1.60;;
16304;SDS011;8261;47.678;-122.174;2022-10-31T03:01:46;2.50;;;1.30;;
16304;SDS011;8261;47.678;-122.174;2022-10-31T03:07:30;2.73;;;1.20;;
16304;SDS011;8261;47.678;-122.174;2022-10-31T03:10:09;2.47;;;1.43;;
16304;SDS011;8261;47.678;-122.174;2022-10-31T03:12:49;2.77;;;1.83;;
16304;SDS011;8261;47.678;-122.174;2022-10-31T03:15:30;1.50;;;1.07;;
16304;SDS011;8261;47.678;-122.174;2022-10-31T03:18:03;3.30;;;1.47;;
16304;SDS011;8261;47.678;-122.174;2022-10-31T03:20:40;2.43;;;1.50;;
16304;SDS011;8261;47.678;-122.174;2022-10-31T03:23:14;2.40;;;1.70;;
16304;SDS011;8261;47.678;-122.174;2022-10-31T03:25:47;1.60;;;1.50;;
16304;SDS011;8261;47.678;-122.174;2022-10-31T03:28:22;2.50;;;1.70;;
16304;SDS011;8261;47.678;-122.174;2022-10-31T03:30:57;4.00;;;1.60;;
16304;SDS011;8261;47.678;-122.174;2022-10-31T03:33:34;2.07;;;1.50;;
16304;SDS011;8261;47.678;-122.174;2022-10-31T03:36:10;4.00;;;1.60;;
16304;SDS011;8261;47.678;-122.174;2022-10-31T03:38:44;2.13;;;1.27;;
16304;SDS011;8261;47.678;-122.174;2022-10-31T03:41:18;3.10;;;2.20;;
16304;SDS011;8261;47.678;-122.174;2022-10-31T03:43:54;2.17;;;1.27;;
16304;SDS011;8261;47.678;-122.174;2022-10-31T03:46:28;2.53;;;1.67;;
16304;SDS011;8261;47.678;-122.174;2022-10-31T03:48:59;2.63;;;1.43;;
16304;SDS011;8261;47.678;-122.174;2022-10-31T03:51:34;2.27;;;1.60;;
16304;SDS011;8261;47.678;-122.174;2022-10-31T03:54:13;2.90;;;1.63;;
16304;SDS011;8261;47.678;-122.174;2022-10-31T03:56:51;3.07;;;1.43;;
16304;SDS011;8261;47.678;-122.174;2022-10-31T03:59:26;1.53;;;1.30;;
16304;SDS011;8261;47.678;-122.174;2022-10-31T04:02:01;2.27;;;1.50;;
16304;SDS011;8261;47.678;-122.174;2022-10-31T04:04:36;1.77;;;1.53;;
16304;SDS011;8261;47.678;-122.174;2022-10-31T04:07:10;3.07;;;1.97;;
16304;SDS011;8261;47.678;-122.174;2022-10-31T04:09:43;2.83;;;1.40;;
16304;SDS011;8261;47.678;-122.174;2022-10-31T04:12:19;2.20;;;1.60;;
16304;SDS011;8261;47.678;-122.174;2022-10-31T04:14:51;3.27;;;1.57;;
16304;SDS011;8261;47.678;-122.174;2022-10-31T04:17:25;3.40;;;1.83;;
16304;SDS011;8261;47.678;-122.174;2022-10-31T04:20:01;3.20;;;1.60;;
16304;SDS011;8261;47.678;-122.174;2022-10-31T04:22:35;3.33;;;1.73;;
16304;SDS011;8261;47.678;-122.174;2022-10-31T04:25:06;2.23;;;1.57;;
16304;SDS011;8261;47.678;-122.174;2022-10-31T04:27:38;2.27;;;1.37;;
16304;SDS011;8261;47.678;-122.174;2022-10-31T04:30:09;2.53;;;1.60;;
16304;SDS011;8261;47.678;-122.174;2022-10-31T04:32:41;2.57;;;1.60;;
16304;SDS011;8261;47.678;-122.174;2022-10-31T04:35:12;2.53;;;1.70;;
16304;SDS011;8261;47.678;-122.174;2022-10-31T04:37:46;1.80;;;1.70;;
16304;SDS011;8261;47.678;-122.174;2022-10-31T04:40:17;1.90;;;1.67;;
16304;SDS011;8261;47.678;-122.174;2022-10-31T04:42:48;2.43;;;1.87;;
16304;SDS011;8261;47.678;-122.174;2022-10-31T04:45:19;1.90;;;1.33;;
16304;SDS011;8261;47.678;-122.174;2022-10-31T04:47:50;2.30;;;1.53;;
16304;SDS011;8261;47.678;-122.174;2022-10-31T04:50:21;3.23;;;1.63;;
16304;SDS011;8261;47.678;-122.174;2022-10-31T04:52:54;2.30;;;1.70;;
16304;SDS011;8261;47.678;-122.174;2022-10-31T04:55:25;3.37;;;1.70;;
16304;SDS011;8261;47.678;-122.174;2022-10-31T04:57:56;2.60;;;1.77;;
16304;SDS011;8261;47.678;-122.174;2022-10-31T05:00:28;1.87;;;1.57;;
16304;SDS011;8261;47.678;-122.174;2022-10-31T05:02:59;3.20;;;1.77;;
16304;SDS011;8261;47.678;-122.174;2022-10-31T05:05:31;1.77;;;1.40;;
16304;SDS011;8261;47.678;-122.174;2022-10-31T05:08:04;2.67;;;1.47;;
16304;SDS011;8261;47.678;-122.174;2022-10-31T05:10:35;2.20;;;1.80;;
16304;SDS011;8261;47.678;-122.174;2022-10-31T05:13:06;3.70;;;1.60;;
16304;SDS011;8261;47.678;-122.174;2022-10-31T05:15:38;2.43;;;1.60;;
16304;SDS011;8261;47.678;-122.174;2022-10-31T05:18:09;2.93;;;1.40;;
16304;SDS011;8261;47.678;-122.174;2022-10-31T05:20:40;2.00;;;1.80;;
16304;SDS011;8261;47.678;-122.174;2022-10-31T05:23:13;2.13;;;1.30;;
16304;SDS011;8261;47.678;-122.174;2022-10-31T05:25:44;1.53;;;1.43;;
16304;SDS011;8261;47.678;-122.174;2022-10-31T05:28:15;2.97;;;1.57;;
16304;SDS011;8261;47.678;-122.174;2022-10-31T05:30:46;2.37;;;1.53;;
16304;SDS011;8261;47.678;-122.174;2022-10-31T05:33:18;2.53;;;1.30;;
16304;SDS011;8261;47.678;-122.174;2022-10-31T05:35:49;3.70;;;1.30;;
16304;SDS011;8261;47.678;-122.174;2022-10-31T05:38:22;2.10;;;1.50;;
16304;SDS011;8261;47.678;-122.174;2022-10-31T05:40:54;2.10;;;1.60;;
16304;SDS011;8261;47.678;-122.174;2022-10-31T05:43:28;3.10;;;1.33;;
16304;SDS011;8261;47.678;-122.174;2022-10-31T05:45:59;2.80;;;1.40;;
16304;SDS011;8261;47.678;-122.174;2022-10-31T05:48:30;2.67;;;1.57;;
16304;SDS011;8261;47.678;-122.174;2022-10-31T05:51:01;2.17;;;1.73;;
16304;SDS011;8261;47.678;-122.174;2022-10-31T05:53:35;4.03;;;1.60;;
16304;SDS011;8261;47.678;-122.174;2022-10-31T05:56:07;3.77;;;1.83;;
16304;SDS011;8261;47.678;-122.174;2022-10-31T05:58:37;3.10;;;1.53;;
16304;SDS011;8261;47.678;-122.174;2022-10-31T06:01:08;2.20;;;1.60;;
16304;SDS011;8261;47.678;-122.174;2022-10-31T06:03:40;1.73;;;1.50;;
16304;SDS011;8261;47.678;-122.174;2022-10-31T06:06:11;2.23;;;1.70;;
16304;SDS011;8261;47.678;-122.174;2022-10-31T06:08:44;2.33;;;1.90;;
16304;SDS011;8261;47.678;-122.174;2022-10-31T06:11:15;4.83;;;1.80;;
16304;SDS011;8261;47.678;-122.174;2022-10-31T06:13:46;3.07;;;1.60;;
16304;SDS011;8261;47.678;-122.174;2022-10-31T06:16:17;3.80;;;2.33;;
16304;SDS011;8261;47.678;-122.174;2022-10-31T06:18:48;2.20;;;2.00;;
16304;SDS011;8261;47.678;-122.174;2022-10-31T06:21:19;4.03;;;2.17;;
16304;SDS011;8261;47.678;-122.174;2022-10-31T06:23:52;2.97;;;2.50;;
16304;SDS011;8261;47.678;-122.174;2022-10-31T06:26:24;4.90;;;2.60;;
16304;SDS011;8261;47.678;-122.174;2022-10-31T06:28:55;2.80;;;2.40;;
16304;SDS011;8261;47.678;-122.174;2022-10-31T06:31:30;6.90;;;2.70;;
16304;SDS011;8261;47.678;-122.174;2022-10-31T06:34:01;7.90;;;2.77;;
16304;SDS011;8261;47.678;-122.174;2022-10-31T06:36:33;17.30;;;3.13;;
16304;SDS011;8261;47.678;-122.174;2022-10-31T06:39:06;10.70;;;2.83;;
16304;SDS011;8261;47.678;-122.174;2022-10-31T06:41:37;5.67;;;2.63;;
16304;SDS011;8261;47.678;-122.174;2022-10-31T06:44:09;9.50;;;2.50;;
16304;SDS011;8261;47.678;-122.174;2022-10-31T06:46:40;3.37;;;2.57;;
16304;SDS011;8261;47.678;-122.174;2022-10-31T06:49:11;19.07;;;3.43;;
16304;SDS011;8261;47.678;-122.174;2022-10-31T06:51:42;13.40;;;2.67;;
16304;SDS011;8261;47.678;-122.174;2022-10-31T06:54:18;4.33;;;2.20;;
16304;SDS011;8261;47.678;-122.174;2022-10-31T06:56:49;2.50;;;2.10;;
16304;SDS011;8261;47.678;-122.174;2022-10-31T06:59:20;1.87;;;1.50;;
16304;SDS011;8261;47.678;-122.174;2022-10-31T07:01:53;1.57;;;1.47;;
16304;SDS011;8261;47.678;-122.174;2022-10-31T07:04:24;1.50;;;1.40;;
16304;SDS011;8261;47.678;-122.174;2022-10-31T07:06:56;2.60;;;1.40;;
16304;SDS011;8261;47.678;-122.174;2022-10-31T07:09:29;7.13;;;1.80;;
16304;SDS011;8261;47.678;-122.174;2022-10-31T07:12:00;3.03;;;1.10;;
16304;SDS011;8261;47.678;-122.174;2022-10-31T07:14:31;1.30;;;1.10;;
16304;SDS011;8261;47.678;-122.174;2022-10-31T07:17:02;1.20;;;1.10;;
16304;SDS011;8261;47.678;-122.174;2022-10-31T07:19:34;1.20;;;1.10;;
16304;SDS011;8261;47.678;-122.174;2022-10-31T07:22:07;1.37;;;0.93;;
16304;SDS011;8261;47.678;-122.174;2022-10-31T07:24:40;0.70;;;0.70;;
16304;SDS011;8261;47.678;-122.174;2022-10-31T07:27:11;0.83;;;0.73;;
16304;SDS011;8261;47.678;-122.174;2022-10-31T07:29:42;0.77;;;0.70;;
16304;SDS011;8261;47.678;-122.174;2022-10-31T07:32:14;2.67;;;1.23;;
16304;SDS011;8261;47.678;-122.174;2022-10-31T07:34:45;2.60;;;1.17;;
16304;SDS011;8261;47.678;-122.174;2022-10-31T07:37:16;2.13;;;1.10;;
16304;SDS011;8261;47.678;-122.174;2022-10-31T07:39:49;3.70;;;1.30;;
16304;SDS011;8261;47.678;-122.174;2022-10-31T07:42:20;6.23;;;1.40;;
16304;SDS011;8261;47.678;-122.174;2022-10-31T07:44:51;4.27;;;1.00;;
16304;SDS011;8261;47.678;-122.174;2022-10-31T07:47:23;2.13;;;1.10;;
16304;SDS011;8261;47.678;-122.174;2022-10-31T07:49:55;2.23;;;1.00;;
16304;SDS011;8261;47.678;-122.174;2022-10-31T07:52:26;1.80;;;0.90;;
16304;SDS011;8261;47.678;-122.174;2022-10-31T07:54:59;0.77;;;0.70;;
16304;SDS011;8261;47.678;-122.174;2022-10-31T07:57:31;1.27;;;0.77;;
16304;SDS011;8261;47.678;-122.174;2022-10-31T08:00:04;1.37;;;0.90;;
16304;SDS011;8261;47.678;-122.174;2022-10-31T08:02:37;0.80;;;0.60;;
16304;SDS011;8261;47.678;-122.174;2022-10-31T08:05:09;2.50;;;0.70;;
16304;SDS011;8261;47.678;-122.174;2022-10-31T08:07:40;3.90;;;0.80;;
16304;SDS011;8261;47.678;-122.174;2022-10-31T08:10:13;6.00;;;0.80;;
16304;SDS011;8261;47.678;-122.174;2022-10-31T08:12:45;2.07;;;0.90;;
16304;SDS011;8261;47.678;-122.174;2022-10-31T08:15:16;0.93;;;0.80;;
16304;SDS011;8261;47.678;-122.174;2022-10-31T08:17:47;1.40;;;0.97;;
16304;SDS011;8261;47.678;-122.174;2022-10-31T08:20:19;2.00;;;0.90;;
16304;SDS011;8261;47.678;-122.174;2022-10-31T08:22:54;1.47;;;0.93;;
16304;SDS011;8261;47.678;-122.174;2022-10-31T08:25:29;2.73;;;1.23;;
16304;SDS011;8261;47.678;-122.174;2022-10-31T08:28:05;0.90;;;0.80;;
16304;SDS011;8261;47.678;-122.174;2022-10-31T08:30:37;3.43;;;0.80;;
16304;SDS011;8261;47.678;-122.174;2022-10-31T08:33:09;1.70;;;0.90;;
16304;SDS011;8261;47.678;-122.174;2022-10-31T08:35:41;2.13;;;0.80;;
16304;SDS011;8261;47.678;-122.174;2022-10-31T08:38:12;1.30;;;0.97;;
16304;SDS011;8261;47.678;-122.174;2022-10-31T08:40:47;1.77;;;1.20;;
16304;SDS011;8261;47.678;-122.174;2022-10-31T08:43:18;1.10;;;1.00;;
16304;SDS011;8261;47.678;-122.174;2022-10-31T08:45:49;3.67;;;1.20;;
16304;SDS011;8261;47.678;-122.174;2022-10-31T08:48:22;2.97;;;1.00;;
16304;SDS011;8261;47.678;-122.174;2022-10-31T08:50:55;3.47;;;1.60;;
16304;SDS011;8261;47.678;-122.174;2022-10-31T08:53:27;1.83;;;1.20;;
16304;SDS011;8261;47.678;-122.174;2022-10-31T08:56:00;1.37;;;1.00;;
16304;SDS011;8261;47.678;-122.174;2022-10-31T08:58:31;1.87;;;1.27;;
16304;SDS011;8261;47.678;-122.174;2022-10-31T09:01:06;1.83;;;1.10;;
16304;SDS011;8261;47.678;-122.174;2022-10-31T09:03:37;2.13;;;1.27;;
16304;SDS011;8261;47.678;-122.174;2022-10-31T09:06:09;2.33;;;1.30;;
16304;SDS011;8261;47.678;-122.174;2022-10-31T09:08:40;4.10;;;1.40;;
16304;SDS011;8261;47.678;-122.174;2022-10-31T09:11:13;2.90;;;1.30;;
16304;SDS011;8261;47.678;-122.174;2022-10-31T09:13:45;2.53;;;1.20;;
16304;SDS011;8261;47.678;-122.174;2022-10-31T09:16:16;3.37;;;1.53;;
16304;SDS011;8261;47.678;-122.174;2022-10-31T09:18:47;2.47;;;1.00;;
16304;SDS011;8261;47.678;-122.174;2022-10-31T09:21:18;8.97;;;1.27;;
16304;SDS011;8261;47.678;-122.174;2022-10-31T09:23:50;5.97;;;0.97;;
16304;SDS011;8261;47.678;-122.174;2022-10-31T09:26:23;3.43;;;1.30;;
16304;SDS011;8261;47.678;-122.174;2022-10-31T09:28:54;2.30;;;1.13;;
16304;SDS011;8261;47.678;-122.174;2022-10-31T09:31:26;1.27;;;0.90;;
16304;SDS011;8261;47.678;-122.174;2022-10-31T09:33:57;4.23;;;1.10;;
16304;SDS011;8261;47.678;-122.174;2022-10-31T09:36:28;2.70;;;1.10;;
16304;SDS011;8261;47.678;-122.174;2022-10-31T09:38:59;3.73;;;1.40;;
16304;SDS011;8261;47.678;-122.174;2022-10-31T09:41:35;4.10;;;1.20;;
16304;SDS011;8261;47.678;-122.174;2022-10-31T09:44:25;3.27;;;0.97;;
16304;SDS011;8261;47.678;-122.174;2022-10-31T09:47:05;5.43;;;1.00;;
16304;SDS011;8261;47.678;-122.174;2022-10-31T09:49:50;2.93;;;1.03;;
16304;SDS011;8261;47.678;-122.174;2022-10-31T09:52:32;2.57;;;1.00;;
16304;SDS011;8261;47.678;-122.174;2022-10-31T09:55:05;4.13;;;1.00;;
16304;SDS011;8261;47.678;-122.174;2022-10-31T09:57:45;1.60;;;1.07;;
16304;SDS011;8261;47.678;-122.174;2022-10-31T10:00:18;4.33;;;1.23;;
16304;SDS011;8261;47.678;-122.174;2022-10-31T10:02:51;2.93;;;1.00;;
16304;SDS011;8261;47.678;-122.174;2022-10-31T10:05:28;1.67;;;1.13;;
16304;SDS011;8261;47.678;-122.174;2022-10-31T10:08:07;5.20;;;1.17;;
16304;SDS011;8261;47.678;-122.174;2022-10-31T10:10:44;2.87;;;1.30;;
16304;SDS011;8261;47.678;-122.174;2022-10-31T10:13:29;2.70;;;1.30;;
16304;SDS011;8261;47.678;-122.174;2022-10-31T10:16:14;2.03;;;1.30;;
16304;SDS011;8261;47.678;-122.174;2022-10-31T10:19:04;1.87;;;1.00;;
16304;SDS011;8261;47.678;-122.174;2022-10-31T10:21:46;1.43;;;1.17;;
16304;SDS011;8261;47.678;-122.174;2022-10-31T10:24:33;3.17;;;1.40;;
16304;SDS011;8261;47.678;-122.174;2022-10-31T10:27:16;1.73;;;1.23;;
16304;SDS011;8261;47.678;-122.174;2022-10-31T10:29:56;2.17;;;1.03;;
16304;SDS011;8261;47.678;-122.174;2022-10-31T10:32:36;3.80;;;1.10;;
16304;SDS011;8261;47.678;-122.174;2022-10-31T10:35:19;3.00;;;1.30;;
16304;SDS011;8261;47.678;-122.174;2022-10-31T10:37:56;2.73;;;1.30;;
16304;SDS011;8261;47.678;-122.174;2022-10-31T10:40:32;3.10;;;1.20;;
16304;SDS011;8261;47.678;-122.174;2022-10-31T10:43:19;3.73;;;1.20;;
16304;SDS011;8261;47.678;-122.174;2022-10-31T10:46:03;3.00;;;1.13;;
16304;SDS011;8261;47.678;-122.174;2022-10-31T10:49:15;2.93;;;1.40;;
16304;SDS011;8261;47.678;-122.174;2022-10-31T10:51:50;1.83;;;1.10;;
16304;SDS011;8261;47.678;-122.174;2022-10-31T10:54:46;2.30;;;1.40;;
16304;SDS011;8261;47.678;-122.174;2022-10-31T11:00:22;1.77;;;1.13;;
16304;SDS011;8261;47.678;-122.174;2022-10-31T11:02:57;2.60;;;1.30;;
16304;SDS011;8261;47.678;-122.174;2022-10-31T11:05:33;3.07;;;1.10;;
16304;SDS011;8261;47.678;-122.174;2022-10-31T11:08:05;1.23;;;1.13;;
16304;SDS011;8261;47.678;-122.174;2022-10-31T11:10:37;1.47;;;1.10;;
16304;SDS011;8261;47.678;-122.174;2022-10-31T11:13:19;1.53;;;1.10;;
16304;SDS011;8261;47.678;-122.174;2022-10-31T11:15:56;2.20;;;1.10;;
16304;SDS011;8261;47.678;-122.174;2022-10-31T11:18:34;1.50;;;0.87;;
16304;SDS011;8261;47.678;-122.174;2022-10-31T11:21:17;1.40;;;1.30;;
16304;SDS011;8261;47.678;-122.174;2022-10-31T11:23:50;1.57;;;1.20;;
16304;SDS011;8261;47.678;-122.174;2022-10-31T11:26:32;1.53;;;1.07;;
16304;SDS011;8261;47.678;-122.174;2022-10-31T11:29:09;1.03;;;0.93;;
16304;SDS011;8261;47.678;-122.174;2022-10-31T11:31:43;1.20;;;0.80;;
16304;SDS011;8261;47.678;-122.174;2022-10-31T11:34:22;1.43;;;0.93;;
16304;SDS011;8261;47.678;-122.174;2022-10-31T11:37:00;1.50;;;1.10;;
16304;SDS011;8261;47.678;-122.174;2022-10-31T11:39:40;1.30;;;1.10;;
16304;SDS011;8261;47.678;-122.174;2022-10-31T11:42:12;1.00;;;0.90;;
16304;SDS011;8261;47.678;-122.174;2022-10-31T11:44:44;1.40;;;0.90;;
16304;SDS011;8261;47.678;-122.174;2022-10-31T11:47:15;2.00;;;0.90;;
16304;SDS011;8261;47.678;-122.174;2022-10-31T11:49:49;1.73;;;1.00;;
16304;SDS011;8261;47.678;-122.174;2022-10-31T11:52:20;1.17;;;0.93;;
16304;SDS011;8261;47.678;-122.174;2022-10-31T11:54:55;1.13;;;1.03;;
16304;SDS011;8261;47.678;-122.174;2022-10-31T11:57:28;1.30;;;1.00;;
16304;SDS011;8261;47.678;-122.174;2022-10-31T12:00:02;2.47;;;0.90;;
16304;SDS011;8261;47.678;-122.174;2022-10-31T12:02:50;1.20;;;0.90;;
16304;SDS011;8261;47.678;-122.174;2022-10-31T12:05:36;2.23;;;1.00;;
16304;SDS011;8261;47.678;-122.174;2022-10-31T12:08:09;0.93;;;0.83;;
16304;SDS011;8261;47.678;-122.174;2022-10-31T12:10:45;1.50;;;0.90;;
16304;SDS011;8261;47.678;-122.174;2022-10-31T12:13:30;1.67;;;1.10;;
16304;SDS011;8261;47.678;-122.174;2022-10-31T12:16:06;1.37;;;0.90;;
16304;SDS011;8261;47.678;-122.174;2022-10-31T12:18:47;2.57;;;1.00;;
16304;SDS011;8261;47.678;-122.174;2022-10-31T12:24:26;1.97;;;1.20;;
16304;SDS011;8261;47.678;-122.174;2022-10-31T12:27:08;1.83;;;1.00;;
16304;SDS011;8261;47.678;-122.174;2022-10-31T12:30:08;1.30;;;1.20;;
16304;SDS011;8261;47.678;-122.174;2022-10-31T12:32:53;1.80;;;1.13;;
16304;SDS011;8261;47.678;-122.174;2022-10-31T12:35:39;1.90;;;1.13;;
16304;SDS011;8261;47.678;-122.174;2022-10-31T12:38:27;1.93;;;1.40;;
16304;SDS011;8261;47.678;-122.174;2022-10-31T12:41:26;1.37;;;1.20;;
16304;SDS011;8261;47.678;-122.174;2022-10-31T12:44:06;1.53;;;1.40;;
16304;SDS011;8261;47.678;-122.174;2022-10-31T12:46:49;2.33;;;1.40;;
16304;SDS011;8261;47.678;-122.174;2022-10-31T12:49:35;2.30;;;1.50;;
16304;SDS011;8261;47.678;-122.174;2022-10-31T12:52:19;1.37;;;1.27;;
16304;SDS011;8261;47.678;-122.174;2022-10-31T12:58:04;3.20;;;1.57;;
16304;SDS011;8261;47.678;-122.174;2022-10-31T13:00:42;2.37;;;1.80;;
16304;SDS011;8261;47.678;-122.174;2022-10-31T13:03:22;3.37;;;2.57;;
16304;SDS011;8261;47.678;-122.174;2022-10-31T13:05:58;2.10;;;1.80;;
16304;SDS011;8261;47.678;-122.174;2022-10-31T13:08:36;3.93;;;1.93;;
16304;SDS011;8261;47.678;-122.174;2022-10-31T13:11:14;4.43;;;1.87;;
16304;SDS011;8261;47.678;-122.174;2022-10-31T13:13:52;2.90;;;1.80;;
16304;SDS011;8261;47.678;-122.174;2022-10-31T13:16:28;2.17;;;1.93;;
16304;SDS011;8261;47.678;-122.174;2022-10-31T13:19:05;2.20;;;1.97;;
16304;SDS011;8261;47.678;-122.174;2022-10-31T13:21:44;3.00;;;2.07;;
16304;SDS011;8261;47.678;-122.174;2022-10-31T13:24:23;2.10;;;1.77;;
16304;SDS011;8261;47.678;-122.174;2022-10-31T13:27:02;2.63;;;1.90;;
16304;SDS011;8261;47.678;-122.174;2022-10-31T13:29:46;3.00;;;1.90;;
16304;SDS011;8261;47.678;-122.174;2022-10-31T13:32:26;3.53;;;1.80;;
16304;SDS011;8261;47.678;-122.174;2022-10-31T13:35:07;3.23;;;1.83;;
16304;SDS011;8261;47.678;-122.174;2022-10-31T13:37:46;2.57;;;1.73;;
16304;SDS011;8261;47.678;-122.174;2022-10-31T13:40:25;2.53;;;1.80;;
16304;SDS011;8261;47.678;-122.174;2022-10-31T13:43:05;2.53;;;1.90;;
16304;SDS011;8261;47.678;-122.174;2022-10-31T13:45:59;3.07;;;1.93;;
16304;SDS011;8261;47.678;-122.174;2022-10-31T13:48:38;2.90;;;2.00;;
16304;SDS011;8261;47.678;-122.174;2022-10-31T13:51:10;3.63;;;1.93;;
16304;SDS011;8261;47.678;-122.174;2022-10-31T13:53:43;2.30;;;2.10;;
16304;SDS011;8261;47.678;-122.174;2022-10-31T13:56:16;3.87;;;2.00;;
16304;SDS011;8261;47.678;-122.174;2022-10-31T13:58:57;4.13;;;1.93;;
16304;SDS011;8261;47.678;-122.174;2022-10-31T14:01:49;2.57;;;1.77;;
16304;SDS011;8261;47.678;-122.174;2022-10-31T14:04:25;4.50;;;2.17;;
16304;SDS011;8261;47.678;-122.174;2022-10-31T14:07:05;2.27;;;1.73;;
16304;SDS011;8261;47.678;-122.174;2022-10-31T14:09:38;2.20;;;1.70;;
16304;SDS011;8261;47.678;-122.174;2022-10-31T14:12:23;2.87;;;1.80;;
16304;SDS011;8261;47.678;-122.174;2022-10-31T14:14:56;3.37;;;1.47;;
16304;SDS011;8261;47.678;-122.174;2022-10-31T14:17:36;1.67;;;1.57;;
16304;SDS011;8261;47.678;-122.174;2022-10-31T14:26:18;1.80;;;1.53;;
16304;SDS011;8261;47.678;-122.174;2022-10-31T14:31:55;3.00;;;1.73;;
16304;SDS011;8261;47.678;-122.174;2022-10-31T14:34:40;2.23;;;1.70;;
16304;SDS011;8261;47.678;-122.174;2022-10-31T14:37:25;1.47;;;1.23;;
16304;SDS011;8261;47.678;-122.174;2022-10-31T14:43:16;2.10;;;1.40;;
16304;SDS011;8261;47.678;-122.174;2022-10-31T14:46:12;3.63;;;1.50;;
16304;SDS011;8261;47.678;-122.174;2022-10-31T14:48:52;1.57;;;1.27;;
16304;SDS011;8261;47.678;-122.174;2022-10-31T14:51:38;2.53;;;1.30;;
16304;SDS011;8261;47.678;-122.174;2022-10-31T14:54:12;3.13;;;1.77;;
16304;SDS011;8261;47.678;-122.174;2022-10-31T14:56:48;2.97;;;1.60;;
16304;SDS011;8261;47.678;-122.174;2022-10-31T14:59:24;2.10;;;1.50;;
16304;SDS011;8261;47.678;-122.174;2022-10-31T15:01:59;2.30;;;1.30;;
16304;SDS011;8261;47.678;-122.174;2022-10-31T15:04:38;1.93;;;1.40;;
16304;SDS011;8261;47.678;-122.174;2022-10-31T15:07:12;2.20;;;1.60;;
16304;SDS011;8261;47.678;-122.174;2022-10-31T15:09:56;3.03;;;1.40;;
16304;SDS011;8261;47.678;-122.174;2022-10-31T15:12:29;1.53;;;1.00;;
16304;SDS011;8261;47.678;-122.174;2022-10-31T15:15:10;2.53;;;1.30;;
16304;SDS011;8261;47.678;-122.174;2022-10-31T15:17:43;2.27;;;1.40;;
16304;SDS011;8261;47.678;-122.174;2022-10-31T15:20:20;4.63;;;1.40;;
16304;SDS011;8261;47.678;-122.174;2022-10-31T15:22:55;2.77;;;1.30;;
16304;SDS011;8261;47.678;-122.174;2022-10-31T15:25:34;2.13;;;1.27;;
16304;SDS011;8261;47.678;-122.174;2022-10-31T15:28:12;2.20;;;1.30;;
16304;SDS011;8261;47.678;-122.174;2022-10-31T15:30:51;2.07;;;1.47;;
16304;SDS011;8261;47.678;-122.174;2022-10-31T15:33:23;2.30;;;1.40;;
16304;SDS011;8261;47.678;-122.174;2022-10-31T15:36:04;1.20;;;1.10;;
16304;SDS011;8261;47.678;-122.174;2022-10-31T15:38:37;1.57;;;1.30;;